sensor_id;sensor_type;location;lat;lon;timestamp;temperature;humidity
63960;DHT22;50136;51.374;0.096;2023-03-23T00:07:58;11.30;99.90
63960;DHT22;50136;51.374;0.096;2023-03-23T00:17:59;11.30;99.90
63960;DHT22;50136;51.374;0.096;2023-03-23T00:28:04;11.20;99.90
63960;DHT22;50136;51.374;0.096;2023-03-23T00:38:08;11.20;99.90
63960;DHT22;50136;51.374;0.096;2023-03-23T00:48:11;11.10;99.90
63960;DHT22;50136;51.374;0.096;2023-03-23T00:58:12;11.00;99.90
63960;DHT22;50136;51.374;0.096;2023-03-23T01:08:18;11.00;99.90
63960;DHT22;50136;51.374;0.096;2023-03-23T01:18:22;11.00;99.90
63960;DHT22;50136;51.374;0.096;2023-03-23T01:28:26;11.00;99.90
63960;DHT22;50136;51.374;0.096;2023-03-23T01:38:29;10.90;99.90
63960;DHT22;50136;51.374;0.096;2023-03-23T01:48:33;10.70;99.90
63960;DHT22;50136;51.374;0.096;2023-03-23T01:58:37;10.70;99.90
63960;DHT22;50136;51.374;0.096;2023-03-23T02:08:41;10.60;99.90
63960;DHT22;50136;51.374;0.096;2023-03-23T02:18:54;10.60;99.90
63960;DHT22;50136;51.374;0.096;2023-03-23T02:29:45;10.50;99.90
63960;DHT22;50136;51.374;0.096;2023-03-23T02:39:52;10.30;99.90
63960;DHT22;50136;51.374;0.096;2023-03-23T02:49:58;10.20;99.90
63960;DHT22;50136;51.374;0.096;2023-03-23T03:00:01;10.10;99.90
63960;DHT22;50136;51.374;0.096;2023-03-23T03:10:06;10.10;99.90
63960;DHT22;50136;51.374;0.096;2023-03-23T03:20:13;10.00;99.90
63960;DHT22;50136;51.374;0.096;2023-03-23T03:30:17;9.90;99.90
63960;DHT22;50136;51.374;0.096;2023-03-23T03:40:22;9.90;99.90
63960;DHT22;50136;51.374;0.096;2023-03-23T03:50:24;9.80;99.90
63960;DHT22;50136;51.374;0.096;2023-03-23T04:00:26;9.70;99.90
63960;DHT22;50136;51.374;0.096;2023-03-23T04:10:30;9.70;99.90
63960;DHT22;50136;51.374;0.096;2023-03-23T04:20:32;9.80;99.90
63960;DHT22;50136;51.374;0.096;2023-03-23T04:30:33;9.80;99.90
63960;DHT22;50136;51.374;0.096;2023-03-23T04:40:39;9.80;99.90
63960;DHT22;50136;51.374;0.096;2023-03-23T04:50:40;9.80;99.90
63960;DHT22;50136;51.374;0.096;2023-03-23T05:00:45;9.60;99.90
63960;DHT22;50136;51.374;0.096;2023-03-23T05:10:50;9.50;99.90
63960;DHT22;50136;51.374;0.096;2023-03-23T05:20:53;9.50;99.90
63960;DHT22;50136;51.374;0.096;2023-03-23T05:30:54;9.50;99.90
63960;DHT22;50136;51.374;0.096;2023-03-23T05:40:59;9.30;99.90
63960;DHT22;50136;51.374;0.096;2023-03-23T05:51:00;9.20;99.90
63960;DHT22;50136;51.374;0.096;2023-03-23T06:01:05;9.10;99.90
63960;DHT22;50136;51.374;0.096;2023-03-23T06:11:09;9.20;99.90
63960;DHT22;50136;51.374;0.096;2023-03-23T06:21:14;9.20;99.90
63960;DHT22;50136;51.374;0.096;2023-03-23T06:31:15;9.20;99.90
63960;DHT22;50136;51.374;0.096;2023-03-23T06:41:17;9.40;99.90
63960;DHT22;50136;51.374;0.096;2023-03-23T06:51:20;9.60;99.90
63960;DHT22;50136;51.374;0.096;2023-03-23T07:01:23;9.70;99.90
63960;DHT22;50136;51.374;0.096;2023-03-23T07:11:24;9.70;99.90
63960;DHT22;50136;51.374;0.096;2023-03-23T07:21:26;9.80;99.90
63960;DHT22;50136;51.374;0.096;2023-03-23T07:31:30;9.90;99.90
63960;DHT22;50136;51.374;0.096;2023-03-23T07:41:36;10.20;99.90
63960;DHT22;50136;51.374;0.096;2023-03-23T07:51:37;10.70;99.90
63960;DHT22;50136;51.374;0.096;2023-03-23T08:01:40;10.80;99.90
63960;DHT22;50136;51.374;0.096;2023-03-23T08:11:40;11.40;99.90
63960;DHT22;50136;51.374;0.096;2023-03-23T08:21:46;11.50;99.90
63960;DHT22;50136;51.374;0.096;2023-03-23T08:31:50;11.60;99.90
63960;DHT22;50136;51.374;0.096;2023-03-23T08:41:52;11.90;99.90
63960;DHT22;50136;51.374;0.096;2023-03-23T08:51:58;12.20;99.90
63960;DHT22;50136;51.374;0.096;2023-03-23T09:02:05;12.70;99.90
63960;DHT22;50136;51.374;0.096;2023-03-23T09:12:16;13.00;99.90
63960;DHT22;50136;51.374;0.096;2023-03-23T09:22:22;13.30;99.90
63960;DHT22;50136;51.374;0.096;2023-03-23T09:32:27;14.30;99.90
63960;DHT22;50136;51.374;0.096;2023-03-23T09:42:45;15.30;99.90
63960;DHT22;50136;51.374;0.096;2023-03-23T09:53:00;14.70;99.90
63960;DHT22;50136;51.374;0.096;2023-03-23T10:03:10;17.00;99.90
63960;DHT22;50136;51.374;0.096;2023-03-23T10:13:22;15.40;99.90
63960;DHT22;50136;51.374;0.096;2023-03-23T10:23:52;14.80;99.90
63960;DHT22;50136;51.374;0.096;2023-03-23T10:34:08;14.80;99.90
63960;DHT22;50136;51.374;0.096;2023-03-23T10:44:19;14.20;99.90
63960;DHT22;50136;51.374;0.096;2023-03-23T10:54:32;13.60;99.90
63960;DHT22;50136;51.374;0.096;2023-03-23T11:04:34;13.30;99.90
63960;DHT22;50136;51.374;0.096;2023-03-23T11:14:36;12.50;99.90
63960;DHT22;50136;51.374;0.096;2023-03-23T11:24:41;13.00;99.90
63960;DHT22;50136;51.374;0.096;2023-03-23T11:34:44;13.40;99.90
63960;DHT22;50136;51.374;0.096;2023-03-23T11:44:47;13.90;99.90
63960;DHT22;50136;51.374;0.096;2023-03-23T11:54:50;14.60;99.90
63960;DHT22;50136;51.374;0.096;2023-03-23T12:05:03;14.40;99.90
63960;DHT22;50136;51.374;0.096;2023-03-23T12:15:16;14.50;99.90
63960;DHT22;50136;51.374;0.096;2023-03-23T12:25:42;14.70;99.90
63960;DHT22;50136;51.374;0.096;2023-03-23T12:35:52;14.50;99.90
63960;DHT22;50136;51.374;0.096;2023-03-23T12:46:03;15.20;99.90
63960;DHT22;50136;51.374;0.096;2023-03-23T12:56:11;15.40;99.90
63960;DHT22;50136;51.374;0.096;2023-03-23T13:06:20;15.80;99.90
63960;DHT22;50136;51.374;0.096;2023-03-23T13:16:29;15.50;99.90
63960;DHT22;50136;51.374;0.096;2023-03-23T13:26:38;15.50;99.90
63960;DHT22;50136;51.374;0.096;2023-03-23T13:36:40;15.30;99.90
63960;DHT22;50136;51.374;0.096;2023-03-23T13:46:54;15.20;99.90
63960;DHT22;50136;51.374;0.096;2023-03-23T13:56:57;15.60;99.90
63960;DHT22;50136;51.374;0.096;2023-03-23T14:07:10;15.50;99.90
63960;DHT22;50136;51.374;0.096;2023-03-23T14:17:15;15.90;99.90
63960;DHT22;50136;51.374;0.096;2023-03-23T14:27:22;15.20;99.90
63960;DHT22;50136;51.374;0.096;2023-03-23T14:37:23;14.70;99.90
63960;DHT22;50136;51.374;0.096;2023-03-23T14:47:28;14.30;99.90
63960;DHT22;50136;51.374;0.096;2023-03-23T14:57:30;14.10;99.90
63960;DHT22;50136;51.374;0.096;2023-03-23T15:07:35;14.00;99.90
63960;DHT22;50136;51.374;0.096;2023-03-23T15:17:37;13.70;99.90
63960;DHT22;50136;51.374;0.096;2023-03-23T15:27:42;13.40;99.90
63960;DHT22;50136;51.374;0.096;2023-03-23T15:37:45;13.30;99.90
63960;DHT22;50136;51.374;0.096;2023-03-23T15:47:49;13.30;99.90
63960;DHT22;50136;51.374;0.096;2023-03-23T15:57:50;12.90;99.90
63960;DHT22;50136;51.374;0.096;2023-03-23T16:07:54;12.60;99.90
63960;DHT22;50136;51.374;0.096;2023-03-23T16:17:59;12.40;99.90
63960;DHT22;50136;51.374;0.096;2023-03-23T16:28:03;12.20;99.90
63960;DHT22;50136;51.374;0.096;2023-03-23T16:38:05;12.00;99.90
63960;DHT22;50136;51.374;0.096;2023-03-23T16:48:12;11.90;99.90
63960;DHT22;50136;51.374;0.096;2023-03-23T16:58:15;11.90;99.90
63960;DHT22;50136;51.374;0.096;2023-03-23T17:08:20;11.70;99.90
63960;DHT22;50136;51.374;0.096;2023-03-23T17:18:27;11.60;99.90
63960;DHT22;50136;51.374;0.096;2023-03-23T17:28:30;11.50;99.90
63960;DHT22;50136;51.374;0.096;2023-03-23T17:38:32;11.40;99.90
63960;DHT22;50136;51.374;0.096;2023-03-23T17:48:37;11.40;99.90
63960;DHT22;50136;51.374;0.096;2023-03-23T17:58:39;11.30;99.90
63960;DHT22;50136;51.374;0.096;2023-03-23T18:08:45;11.20;99.90
63960;DHT22;50136;51.374;0.096;2023-03-23T18:18:47;11.20;99.90
63960;DHT22;50136;51.374;0.096;2023-03-23T18:28:51;11.30;99.90
63960;DHT22;50136;51.374;0.096;2023-03-23T18:38:55;11.20;99.90
63960;DHT22;50136;51.374;0.096;2023-03-23T18:48:59;11.20;99.90
63960;DHT22;50136;51.374;0.096;2023-03-23T18:59:00;11.20;99.90
63960;DHT22;50136;51.374;0.096;2023-03-23T19:09:04;11.10;99.90
63960;DHT22;50136;51.374;0.096;2023-03-23T19:19:06;11.10;99.90
63960;DHT22;50136;51.374;0.096;2023-03-23T19:29:12;11.00;99.90
63960;DHT22;50136;51.374;0.096;2023-03-23T19:39:17;11.10;99.90
63960;DHT22;50136;51.374;0.096;2023-03-23T19:49:21;11.00;99.90
63960;DHT22;50136;51.374;0.096;2023-03-23T19:59:23;11.00;99.90
63960;DHT22;50136;51.374;0.096;2023-03-23T20:09:28;10.90;99.90
63960;DHT22;50136;51.374;0.096;2023-03-23T20:19:32;10.90;99.90
63960;DHT22;50136;51.374;0.096;2023-03-23T20:29:35;11.00;99.90
63960;DHT22;50136;51.374;0.096;2023-03-23T20:39:37;11.00;99.90
63960;DHT22;50136;51.374;0.096;2023-03-23T20:49:40;11.00;99.90
63960;DHT22;50136;51.374;0.096;2023-03-23T21:00:04;10.90;99.90
63960;DHT22;50136;51.374;0.096;2023-03-23T21:10:07;10.90;99.90
63960;DHT22;50136;51.374;0.096;2023-03-23T21:20:11;10.70;99.90
63960;DHT22;50136;51.374;0.096;2023-03-23T21:30:16;10.60;99.90
63960;DHT22;50136;51.374;0.096;2023-03-23T21:40:19;10.50;99.90
63960;DHT22;50136;51.374;0.096;2023-03-23T21:50:23;10.40;99.90
63960;DHT22;50136;51.374;0.096;2023-03-23T22:00:27;10.30;99.90
63960;DHT22;50136;51.374;0.096;2023-03-23T22:10:30;10.30;99.90
63960;DHT22;50136;51.374;0.096;2023-03-23T22:20:32;10.20;99.90
63960;DHT22;50136;51.374;0.096;2023-03-23T22:30:36;10.20;99.90
63960;DHT22;50136;51.374;0.096;2023-03-23T22:40:38;10.10;99.90
63960;DHT22;50136;51.374;0.096;2023-03-23T22:50:45;10.10;99.90
63960;DHT22;50136;51.374;0.096;2023-03-23T23:00:54;10.10;99.90
63960;DHT22;50136;51.374;0.096;2023-03-23T23:10:59;10.10;99.90
63960;DHT22;50136;51.374;0.096;2023-03-23T23:21:06;10.10;99.90
63960;DHT22;50136;51.374;0.096;2023-03-23T23:31:21;10.10;99.90
63960;DHT22;50136;51.374;0.096;2023-03-23T23:41:24;10.00;99.90
63960;DHT22;50136;51.374;0.096;2023-03-23T23:51:28;9.90;99.90
